Time;durP1;ratioP1;P1;durP2;ratioP2;P2;SDS_P1;SDS_P2;PMS_P1;PMS_P2;Temp;Humidity;BMP_temperature;BMP_pressure;BME280_temperature;BME280_humidity;BME280_pressure;Samples;Min_cycle;Max_cycle;Signal;HPM_P1;HPM_P2
2023/07/20 00:02:15;;;;;;;5.05;1.35;;;;;;;21.15;100.00;94515.03;4954605;28;20073;-81
2023/07/20 00:04:41;;;;;;;4.03;1.90;;;;;;;20.98;100.00;94507.97;4962699;28;20029;-85
2023/07/20 00:07:06;;;;;;;4.10;1.30;;;;;;;21.03;100.00;94518.56;4935904;28;20026;-83
2023/07/20 00:09:31;;;;;;;5.75;1.52;;;;;;;20.86;100.00;94525.75;4951690;28;20026;-83
2023/07/20 00:11:59;;;;;;;4.75;1.45;;;;;;;20.70;100.00;94528.41;4963309;28;20033;-83
2023/07/20 00:14:25;;;;;;;13.98;1.70;;;;;;;20.69;100.00;94538.16;4961604;28;20069;-82
2023/07/20 00:16:55;;;;;;;6.20;1.65;;;;;;;20.62;100.00;94520.94;4972822;28;20111;-81
2023/07/20 00:19:23;;;;;;;1.90;1.25;;;;;;;20.54;100.00;94513.47;4934383;28;20030;-82
2023/07/20 00:21:49;;;;;;;2.70;1.20;;;;;;;20.29;100.00;94519.19;4963354;28;20061;-87
2023/07/20 00:24:14;;;;;;;3.83;1.42;;;;;;;20.21;100.00;94524.78;4936776;28;20066;-82
2023/07/20 00:26:40;;;;;;;5.13;1.55;;;;;;;20.28;100.00;94534.16;4950642;28;20037;-82
2023/07/20 00:29:05;;;;;;;3.42;1.20;;;;;;;20.29;100.00;94542.84;4964109;28;20030;-82
2023/07/20 00:31:31;;;;;;;11.25;2.05;;;;;;;20.16;100.00;94549.22;4936201;28;20023;-81
2023/07/20 00:33:56;;;;;;;5.28;1.50;;;;;;;20.33;100.00;94543.94;4959064;28;20027;-85
2023/07/20 00:36:22;;;;;;;6.85;1.70;;;;;;;19.84;100.00;94545.53;4936611;28;20507;-82
2023/07/20 00:38:47;;;;;;;7.20;1.70;;;;;;;19.71;100.00;94545.81;4967317;28;20026;-81
2023/07/20 00:41:13;;;;;;;6.95;1.40;;;;;;;19.46;100.00;94548.78;4952008;28;20045;-81
2023/07/20 00:43:38;;;;;;;5.13;2.30;;;;;;;19.72;100.00;94542.16;4965514;28;20385;-85
2023/07/20 00:46:05;;;;;;;3.30;1.60;;;;;;;19.54;100.00;94529.22;4972486;28;20105;-81
2023/07/20 00:48:31;;;;;;;4.60;1.90;;;;;;;19.59;100.00;94548.50;4962935;28;20030;-82
2023/07/20 00:50:58;;;;;;;3.92;1.45;;;;;;;19.25;100.00;94567.81;4950201;28;20158;-83
2023/07/20 00:53:23;;;;;;;3.78;1.88;;;;;;;19.44;100.00;94562.16;4949623;28;20050;-81
2023/07/20 00:55:49;;;;;;;5.60;2.00;;;;;;;19.65;100.00;94557.28;4956244;28;20504;-83
2023/07/20 00:58:15;;;;;;;2.28;2.08;;;;;;;19.69;100.00;94542.63;4951252;28;20162;-84
2023/07/20 01:00:40;;;;;;;3.22;1.73;;;;;;;19.56;100.00;94543.72;4950637;28;20409;-83
2023/07/20 01:03:06;;;;;;;5.00;1.90;;;;;;;19.53;100.00;94533.69;4963557;28;20393;-82
2023/07/20 01:06:00;;;;;;;3.00;1.67;;;;;;;19.71;100.00;94514.28;4975009;28;20056;-82
2023/07/20 01:08:35;;;;;;;3.58;2.30;;;;;;;19.65;100.00;94526.53;4943714;28;20121;-81
2023/07/20 01:11:13;;;;;;;4.45;1.90;;;;;;;19.54;100.00;94542.38;4960977;28;20034;-81
2023/07/20 01:13:39;;;;;;;2.35;1.85;;;;;;;19.36;100.00;94549.38;4964706;28;20022;-81
2023/07/20 01:16:05;;;;;;;8.65;2.08;;;;;;;19.19;100.00;94569.53;4981534;28;20067;-80
2023/07/20 01:18:30;;;;;;;6.25;2.38;;;;;;;19.39;100.00;94569.13;4960778;28;20515;-81
2023/07/20 01:20:59;;;;;;;6.35;2.00;;;;;;;19.49;100.00;94569.31;4962219;28;20155;-81
2023/07/20 01:23:31;;;;;;;;;;;;;;;19.44;100.00;94571.88;4961234;28;20038;-81
2023/07/20 01:26:12;;;;;;;3.67;1.95;;;;;;;19.33;100.00;94576.09;4936218;28;19914;-81
2023/07/20 01:28:58;;;;;;;7.38;2.17;;;;;;;19.28;100.00;94583.09;4965448;28;20101;-80
2023/07/20 01:31:32;;;;;;;8.07;2.55;;;;;;;19.40;100.00;94570.75;4953455;28;20034;-80
2023/07/20 01:34:00;;;;;;;7.60;2.53;;;;;;;19.01;100.00;94614.31;4947778;28;20034;-82
2023/07/20 01:36:28;;;;;;;3.80;2.38;;;;;;;19.10;100.00;94620.81;4942555;28;20037;-82
2023/07/20 01:38:54;;;;;;;7.95;1.98;;;;;;;19.20;100.00;94615.00;4962301;28;20026;-82
2023/07/20 01:41:20;;;;;;;4.00;3.60;;;;;;;19.06;100.00;94611.81;4948140;28;20664;-82
2023/07/20 01:43:46;;;;;;;5.78;2.28;;;;;;;18.93;100.00;94604.97;4947605;28;20026;-79
2023/07/20 01:46:11;;;;;;;5.57;2.15;;;;;;;18.83;100.00;94630.19;4961878;28;20417;-80
2023/07/20 01:48:37;;;;;;;5.28;2.20;;;;;;;18.76;100.00;94634.75;4960766;28;20047;-79
2023/07/20 01:51:02;;;;;;;4.60;2.30;;;;;;;18.84;100.00;94637.88;4961971;28;20528;-81
2023/07/20 01:53:28;;;;;;;3.47;2.53;;;;;;;18.81;100.00;94637.53;4952843;28;20096;-80
2023/07/20 01:55:54;;;;;;;4.18;2.50;;;;;;;18.66;100.00;94643.22;4944933;28;20051;-80
2023/07/20 01:58:21;;;;;;;2.45;2.10;;;;;;;18.61;100.00;94650.16;4941384;28;20039;-79
2023/07/20 02:00:46;;;;;;;6.55;2.90;;;;;;;18.71;100.00;94655.66;4942503;28;20031;-80
2023/07/20 02:03:12;;;;;;;3.08;2.15;;;;;;;18.43;100.00;94643.16;4942124;28;20031;-82
2023/07/20 02:05:38;;;;;;;4.45;2.40;;;;;;;18.19;100.00;94668.56;4941689;29;20031;-80
2023/07/20 02:08:03;;;;;;;2.83;2.50;;;;;;;18.19;100.00;94689.53;4941580;29;20094;-80
2023/07/20 02:10:29;;;;;;;4.03;2.75;;;;;;;18.09;100.00;94698.94;4941465;28;20039;-85
2023/07/20 02:12:55;;;;;;;5.10;2.15;;;;;;;17.92;100.00;94703.22;4941998;28;20509;-87
2023/07/20 02:15:21;;;;;;;13.48;2.80;;;;;;;17.99;100.00;94701.28;4939140;29;20110;-84
2023/07/20 02:17:46;;;;;;;7.80;3.17;;;;;;;18.01;100.00;94692.22;4944586;28;20023;-83
2023/07/20 02:20:12;;;;;;;5.50;2.88;;;;;;;18.01;100.00;94678.31;4944945;29;20485;-82
2023/07/20 02:22:38;;;;;;;6.63;2.60;;;;;;;17.99;100.00;94667.22;4945388;28;20512;-87
2023/07/20 02:25:05;;;;;;;3.22;2.42;;;;;;;17.96;100.00;94678.97;4943122;29;20059;-87
2023/07/20 02:27:30;;;;;;;6.03;2.15;;;;;;;18.06;100.00;94668.75;4941662;29;20084;-84
2023/07/20 02:29:56;;;;;;;7.25;3.15;;;;;;;17.95;100.00;94656.38;4942596;29;20074;-84
2023/07/20 02:32:21;;;;;;;5.50;2.70;;;;;;;18.00;100.00;94659.16;4947962;28;20038;-83
2023/07/20 02:34:47;;;;;;;6.80;2.72;;;;;;;17.97;100.00;94653.56;4955247;28;20030;-83
2023/07/20 02:37:13;;;;;;;2.97;2.50;;;;;;;18.07;100.00;94662.50;4944682;28;20042;-84
2023/07/20 02:39:39;;;;;;;6.70;2.63;;;;;;;18.01;100.00;94647.66;4944421;29;20023;-83
2023/07/20 02:42:05;;;;;;;3.08;2.47;;;;;;;17.84;100.00;94652.72;4944320;28;20059;-84
2023/07/20 02:44:30;;;;;;;9.48;5.18;;;;;;;17.71;100.00;94654.72;4945161;28;20191;-84
2023/07/20 02:46:56;;;;;;;7.57;2.65;;;;;;;17.61;100.00;94646.59;4945339;28;20035;-82
2023/07/20 02:49:21;;;;;;;5.18;2.70;;;;;;;17.63;100.00;94657.63;4942217;29;20512;-85
2023/07/20 02:51:47;;;;;;;7.20;3.10;;;;;;;17.74;100.00;94660.31;4944197;28;20029;-86
2023/07/20 02:54:12;;;;;;;9.65;3.28;;;;;;;17.51;100.00;94649.69;4925276;29;20035;-83
2023/07/20 02:56:37;;;;;;;6.55;2.60;;;;;;;17.49;100.00;94661.41;4943157;29;20048;-84
2023/07/20 02:59:03;;;;;;;8.00;2.15;;;;;;;17.64;100.00;94665.28;4942102;29;20562;-84
2023/07/20 03:01:29;;;;;;;8.35;2.55;;;;;;;17.65;100.00;94645.13;4945010;28;20027;-83
2023/07/20 03:03:55;;;;;;;9.40;2.67;;;;;;;17.49;100.00;94640.47;4943433;29;20027;-82
2023/07/20 03:06:21;;;;;;;3.85;2.42;;;;;;;17.50;100.00;94663.03;4942754;29;20023;-84
2023/07/20 03:08:48;;;;;;;7.43;2.90;;;;;;;17.73;100.00;94658.72;4913471;29;20046;-84
2023/07/20 03:11:17;;;;;;;9.00;2.63;;;;;;;17.77;100.00;94645.97;4941625;28;20027;-82
2023/07/20 03:13:43;;;;;;;8.48;3.30;;;;;;;17.92;100.00;94654.22;4943530;28;20110;-84
2023/07/20 03:16:11;;;;;;;3.67;2.80;;;;;;;17.87;100.00;94656.72;4925783;29;20023;-83
2023/07/20 03:18:39;;;;;;;7.30;2.90;;;;;;;17.61;100.00;94697.16;4957464;28;20036;-84
2023/07/20 03:21:07;;;;;;;4.07;2.55;;;;;;;17.78;100.00;94702.59;4926819;29;20035;-83
2023/07/20 03:23:32;;;;;;;5.25;2.65;;;;;;;17.86;100.00;94668.22;4942364;29;20039;-81
2023/07/20 03:25:58;;;;;;;7.38;2.53;;;;;;;17.85;100.00;94635.97;4951295;28;20162;-84
2023/07/20 03:28:23;;;;;;;3.75;2.60;;;;;;;18.08;100.00;94643.09;4947937;28;20038;-84
2023/07/20 03:30:58;;;;;;;3.10;2.10;;;;;;;18.01;100.00;94629.31;4948639;28;20039;-84
2023/07/20 03:33:28;;;;;;;5.35;3.33;;;;;;;17.67;100.00;94646.50;4932858;29;20031;-86
2023/07/20 03:35:54;;;;;;;3.28;2.42;;;;;;;17.63;100.00;94675.97;4943272;29;20027;-86
2023/07/20 03:38:20;;;;;;;5.10;3.20;;;;;;;17.66;100.00;94658.00;4942397;29;20404;-85
2023/07/20 03:40:57;;;;;;;3.58;2.78;;;;;;;17.68;100.00;94663.81;4941376;29;20031;-85
2023/07/20 03:43:24;;;;;;;6.45;3.20;;;;;;;17.86;100.00;94668.22;4944777;28;20130;-85
2023/07/20 03:45:50;;;;;;;5.45;2.50;;;;;;;18.15;100.00;94640.38;4942714;28;20498;-85
2023/07/20 03:48:17;;;;;;;21.13;4.93;;;;;;;18.56;100.00;94600.22;4958770;28;20031;-87
2023/07/20 03:50:45;;;;;;;5.80;2.80;;;;;;;19.04;100.00;94553.47;4941820;29;20034;-85
2023/07/20 03:53:10;;;;;;;4.00;2.30;;;;;;;19.54;100.00;94514.25;4942496;29;20035;-84
2023/07/20 03:55:35;;;;;;;7.78;2.20;;;;;;;20.19;100.00;94495.31;4932158;28;20065;-84
2023/07/20 03:58:01;;;;;;;5.50;2.40;;;;;;;20.50;100.00;94461.31;4952410;28;20409;-83
2023/07/20 04:00:27;;;;;;;7.90;2.35;;;;;;;20.83;100.00;94439.34;4944278;28;20114;-83
2023/07/20 04:02:53;;;;;;;4.68;2.25;;;;;;;21.16;100.00;94432.34;4942709;28;20449;-85
2023/07/20 04:05:18;;;;;;;12.23;2.80;;;;;;;21.61;100.00;94429.31;4961213;28;20121;-83
2023/07/20 04:07:44;;;;;;;5.95;2.30;;;;;;;21.88;100.00;94415.03;4971208;28;20038;-82
2023/07/20 04:10:10;;;;;;;5.57;2.33;;;;;;;22.36;100.00;94418.50;4946737;28;20039;-82
2023/07/20 04:12:35;;;;;;;5.10;1.92;;;;;;;22.48;100.00;94419.06;4942683;28;20405;-82
2023/07/20 04:15:01;;;;;;;4.75;2.65;;;;;;;22.54;100.00;94426.75;4939686;28;20117;-81
2023/07/20 04:17:26;;;;;;;6.13;2.47;;;;;;;22.50;100.00;94425.69;4942469;28;20031;-83
2023/07/20 04:19:52;;;;;;;2.83;2.40;;;;;;;22.41;100.00;94413.25;4954148;28;20030;-82
2023/07/20 04:22:17;;;;;;;3.05;1.90;;;;;;;22.40;100.00;94423.00;4940062;29;20421;-82
2023/07/20 04:24:43;;;;;;;6.20;2.55;;;;;;;22.70;100.00;94419.72;4941421;28;20065;-84
2023/07/20 04:27:08;;;;;;;3.95;2.35;;;;;;;23.27;100.00;94421.47;4943629;28;20795;-83
2023/07/20 04:29:34;;;;;;;4.63;2.20;;;;;;;23.33;100.00;94405.34;4949873;28;20045;-81
2023/07/20 04:31:59;;;;;;;4.70;2.40;;;;;;;23.36;100.00;94419.88;4932218;28;20085;-82
2023/07/20 04:34:25;;;;;;;3.88;2.65;;;;;;;23.73;100.00;94420.44;4959316;28;20524;-83
2023/07/20 04:36:50;;;;;;;4.25;3.28;;;;;;;24.21;100.00;94415.69;4949978;28;20039;-82
2023/07/20 04:39:16;;;;;;;2.47;2.28;;;;;;;23.97;100.00;94420.72;4941018;28;20137;-81
2023/07/20 04:41:41;;;;;;;4.15;2.65;;;;;;;25.27;100.00;94407.31;4951449;28;20053;-82
2023/07/20 04:44:07;;;;;;;5.63;2.30;;;;;;;25.55;100.00;94409.25;4929104;28;20023;-83
2023/07/20 04:46:32;;;;;;;3.15;2.65;;;;;;;26.17;100.00;94414.56;4942150;28;20078;-83
2023/07/20 04:48:57;;;;;;;5.53;1.98;;;;;;;26.15;99.53;94402.59;4957110;28;20031;-83
2023/07/20 04:51:23;;;;;;;7.43;2.40;;;;;;;26.87;94.70;94406.13;4958239;28;20035;-81
2023/07/20 04:53:49;;;;;;;4.45;2.65;;;;;;;25.83;98.90;94394.41;4961050;28;20030;-82
2023/07/20 04:56:15;;;;;;;6.40;2.13;;;;;;;27.18;89.79;94399.31;4972415;28;20047;-81
2023/07/20 04:58:40;;;;;;;9.20;2.40;;;;;;;27.82;87.87;94392.50;4961584;28;20031;-82
2023/07/20 05:01:06;;;;;;;9.95;2.08;;;;;;;28.21;85.81;94403.56;4980313;28;20088;-82
2023/07/20 05:03:31;;;;;;;8.75;2.28;;;;;;;28.26;81.62;94398.94;4955947;28;20023;-81
2023/07/20 05:05:57;;;;;;;5.10;2.15;;;;;;;28.90;75.99;94401.75;4978342;28;20026;-81
2023/07/20 05:08:22;;;;;;;6.65;2.45;;;;;;;29.24;75.22;94394.06;4953501;28;20038;-81
2023/07/20 05:10:48;;;;;;;5.10;2.50;;;;;;;28.94;76.36;94392.81;4979184;28;20027;-81
2023/07/20 05:13:13;;;;;;;4.90;2.50;;;;;;;28.59;75.89;94383.66;4974579;28;20070;-81
2023/07/20 05:15:39;;;;;;;6.45;2.40;;;;;;;28.88;76.99;94382.56;4971173;28;20027;-81
2023/07/20 05:18:05;;;;;;;5.10;2.92;;;;;;;29.83;77.76;94389.53;4944274;28;20030;-81
2023/07/20 05:20:31;;;;;;;6.05;2.92;;;;;;;30.26;71.97;94390.56;4975320;28;20036;-81
2023/07/20 05:22:57;;;;;;;3.38;2.72;;;;;;;31.34;68.51;94380.81;4971914;28;20026;-81
2023/07/20 05:25:22;;;;;;;6.40;2.03;;;;;;;31.17;65.17;94380.81;4977285;28;20423;-81
2023/07/20 05:27:48;;;;;;;6.20;2.55;;;;;;;31.59;62.57;94381.97;4961862;28;20066;-81
2023/07/20 05:30:13;;;;;;;11.63;2.60;;;;;;;31.97;65.75;94395.47;4954802;28;20033;-82
2023/07/20 05:32:39;;;;;;;4.80;1.90;;;;;;;32.61;63.26;94388.22;4938905;28;20035;-81
2023/07/20 05:35:05;;;;;;;3.80;2.10;;;;;;;33.23;61.21;94376.84;4976268;28;20030;-82
2023/07/20 05:37:30;;;;;;;6.65;2.53;;;;;;;33.47;58.37;94370.78;4972738;28;20044;-81
2023/07/20 05:39:56;;;;;;;6.03;2.33;;;;;;;34.01;56.38;94375.06;4977649;28;20027;-81
2023/07/20 05:42:22;;;;;;;6.70;2.03;;;;;;;34.44;54.47;94377.31;4943089;28;20026;-82
2023/07/20 05:44:49;;;;;;;7.13;2.10;;;;;;;34.34;55.12;94370.47;4960967;28;20854;-82
2023/07/20 05:47:14;;;;;;;3.72;2.03;;;;;;;34.75;52.66;94376.78;4960653;28;20547;-84
2023/07/20 05:49:40;;;;;;;7.80;2.23;;;;;;;36.18;49.16;94370.63;4959480;28;20084;-82
2023/07/20 05:52:05;;;;;;;2.83;2.10;;;;;;;35.94;49.14;94376.91;4959662;28;20088;-85
2023/07/20 05:54:31;;;;;;;5.93;2.10;;;;;;;36.19;44.40;94374.88;4965399;28;20153;-80
2023/07/20 05:56:56;;;;;;;6.40;1.80;;;;;;;36.03;45.10;94384.06;4951048;28;20511;-81
2023/07/20 05:59:23;;;;;;;6.70;2.00;;;;;;;36.88;43.55;94387.03;4950288;28;20019;-82
2023/07/20 06:01:49;;;;;;;10.43;2.25;;;;;;;36.71;45.37;94384.69;4987339;28;20196;-81
2023/07/20 06:04:14;;;;;;;15.77;1.93;;;;;;;37.03;45.47;94396.25;4965599;28;20547;-81
2023/07/20 06:06:40;;;;;;;4.90;1.67;;;;;;;36.55;45.44;94392.00;4964318;28;20539;-81
2023/07/20 06:09:09;;;;;;;4.73;1.73;;;;;;;36.59;44.12;94400.97;4960808;28;20026;-81
2023/07/20 06:11:35;;;;;;;2.65;2.08;;;;;;;36.66;44.03;94399.25;4965849;28;21130;-80
2023/07/20 06:14:00;;;;;;;4.90;2.00;;;;;;;37.39;44.71;94404.81;4946178;28;20121;-81
2023/07/20 06:16:26;;;;;;;14.57;2.93;;;;;;;37.63;43.09;94400.34;4966347;28;20738;-80
2023/07/20 06:18:51;;;;;;;18.73;1.97;;;;;;;38.28;42.41;94398.50;4964663;28;20026;-81
2023/07/20 06:21:16;;;;;;;5.50;2.10;;;;;;;37.57;42.95;94394.41;4980517;28;20507;-82
2023/07/20 06:23:42;;;;;;;3.73;2.13;;;;;;;37.03;42.23;94397.06;4966143;28;20034;-79
2023/07/20 06:26:07;;;;;;;7.40;2.20;;;;;;;37.87;42.71;94390.00;4964609;28;20126;-80
2023/07/20 06:28:33;;;;;;;9.63;2.30;;;;;;;37.28;43.22;94389.53;4964878;28;20030;-81
2023/07/20 06:31:03;;;;;;;5.20;2.20;;;;;;;37.88;42.52;94393.50;4943997;28;20779;-80
2023/07/20 06:33:28;;;;;;;7.65;2.10;;;;;;;36.45;45.85;94395.97;4945099;28;20062;-83
2023/07/20 06:35:54;;;;;;;6.32;2.25;;;;;;;33.42;56.15;94379.06;4963503;28;20341;-80
2023/07/20 06:38:20;;;;;;;6.35;1.92;;;;;;;32.85;58.54;94383.03;4966888;28;20037;-81
2023/07/20 06:40:51;;;;;;;10.77;2.30;;;;;;;33.12;60.39;94387.19;4972312;28;20018;-84
2023/07/20 06:43:17;;;;;;;5.28;2.08;;;;;;;33.10;57.30;94384.03;4968680;28;20034;-82
2023/07/20 06:45:42;;;;;;;7.77;2.13;;;;;;;33.20;56.84;94378.25;4970269;28;20041;-82
2023/07/20 06:48:08;;;;;;;4.00;2.20;;;;;;;35.37;51.73;94376.41;4988648;28;20037;-82
2023/07/20 06:50:33;;;;;;;4.20;2.33;;;;;;;36.88;45.06;94371.59;4956968;28;20030;-81
2023/07/20 06:52:59;;;;;;;9.87;2.03;;;;;;;37.24;44.68;94375.13;4990672;28;20034;-81
2023/07/20 06:55:25;;;;;;;7.00;2.47;;;;;;;38.44;42.53;94375.63;4988059;28;20129;-84
2023/07/20 06:57:51;;;;;;;7.80;2.00;;;;;;;37.33;43.90;94375.72;4973208;28;20120;-81
2023/07/20 07:00:17;;;;;;;7.07;2.05;;;;;;;37.94;42.77;94365.03;4972236;28;20022;-87
2023/07/20 07:02:43;;;;;;;5.93;2.75;;;;;;;38.35;41.29;94382.41;4972730;28;20026;-81
2023/07/20 07:05:08;;;;;;;5.95;2.38;;;;;;;35.41;46.48;94371.91;4972137;28;20045;-81
2023/07/20 07:07:34;;;;;;;7.25;2.40;;;;;;;33.78;54.40;94380.03;4973385;28;20022;-88
2023/07/20 07:10:00;;;;;;;3.65;1.80;;;;;;;33.30;57.05;94382.44;4972384;28;20041;-83
2023/07/20 07:12:25;;;;;;;6.57;2.50;;;;;;;32.66;57.15;94384.56;4989445;28;20034;-82
2023/07/20 07:14:51;;;;;;;7.80;2.20;;;;;;;32.45;58.89;94394.41;4972744;28;20029;-82
2023/07/20 07:17:16;;;;;;;9.35;2.80;;;;;;;33.11;59.55;94390.16;4956290;28;20595;-86
2023/07/20 07:19:42;;;;;;;7.90;1.90;;;;;;;33.10;60.32;94397.47;4973440;28;20105;-82
2023/07/20 07:22:07;;;;;;;7.50;2.10;;;;;;;33.28;62.92;94396.22;4971708;28;20053;-86
2023/07/20 07:24:36;;;;;;;5.22;2.30;;;;;;;32.99;63.83;94414.22;4990631;28;20482;-83
2023/07/20 07:27:02;;;;;;;5.00;1.98;;;;;;;32.21;65.83;94401.09;4956390;28;20625;-89
2023/07/20 07:29:28;;;;;;;5.53;2.20;;;;;;;31.91;64.86;94418.19;4989164;28;20030;-84
2023/07/20 07:31:53;;;;;;;11.23;2.70;;;;;;;32.97;64.12;94411.88;4972061;28;20503;-84
2023/07/20 07:34:18;;;;;;;14.10;2.50;;;;;;;33.27;62.52;94426.88;4972560;28;20042;-84
2023/07/20 07:36:44;;;;;;;4.70;2.03;;;;;;;32.40;61.41;94437.50;4956633;28;20514;-84
2023/07/20 07:39:10;;;;;;;8.05;2.20;;;;;;;32.98;62.08;94434.91;4971691;28;20420;-84
2023/07/20 07:41:36;;;;;;;6.28;2.30;;;;;;;32.46;60.74;94450.44;4973106;28;20038;-86
2023/07/20 07:44:01;;;;;;;5.80;2.53;;;;;;;31.78;62.90;94452.09;4955192;28;20432;-85
2023/07/20 07:46:26;;;;;;;6.28;2.78;;;;;;;31.33;71.54;94448.09;4972798;28;20487;-84
2023/07/20 07:48:52;;;;;;;4.53;2.63;;;;;;;31.51;75.12;94439.00;4971364;28;20037;-82
2023/07/20 07:51:18;;;;;;;7.50;2.47;;;;;;;32.08;72.10;94431.56;4972873;28;20049;-82
2023/07/20 07:53:44;;;;;;;7.95;2.33;;;;;;;32.34;66.12;94435.00;4956116;28;20120;-84
2023/07/20 07:56:09;;;;;;;18.98;3.20;;;;;;;32.24;67.34;94427.28;4971426;28;20046;-88
2023/07/20 07:58:35;;;;;;;5.30;2.92;;;;;;;32.23;62.55;94425.72;4956566;28;20034;-80
2023/07/20 08:01:01;;;;;;;6.82;2.42;;;;;;;31.91;62.18;94428.13;4954883;28;20018;-87
2023/07/20 08:03:26;;;;;;;2.65;1.83;;;;;;;32.06;65.20;94422.28;4972480;28;20483;-84
2023/07/20 08:05:55;;;;;;;5.03;2.03;;;;;;;32.39;63.62;94428.69;4988327;28;20022;-82
2023/07/20 08:08:20;;;;;;;7.22;2.50;;;;;;;32.00;64.79;94410.13;4956437;28;20042;-84
2023/07/20 08:10:48;;;;;;;5.93;2.03;;;;;;;31.29;61.38;94396.25;4972269;28;20029;-90
2023/07/20 08:13:14;;;;;;;6.07;2.03;;;;;;;32.09;64.78;94400.19;4988006;28;20441;-83
2023/07/20 08:15:41;;;;;;;4.20;2.22;;;;;;;31.75;62.01;94383.06;4971429;28;20038;-84
2023/07/20 08:18:07;;;;;;;6.77;2.43;;;;;;;31.75;63.67;94382.25;4986819;28;20031;-83
2023/07/20 08:20:35;;;;;;;9.63;2.55;;;;;;;31.43;62.12;94380.84;4957014;28;20300;-82
2023/07/20 08:23:02;;;;;;;5.90;2.42;;;;;;;31.81;59.37;94397.06;4954445;28;20026;-82
2023/07/20 08:25:27;;;;;;;11.45;3.10;;;;;;;31.88;66.12;94397.38;4972124;28;20084;-83
2023/07/20 08:27:53;;;;;;;7.78;2.15;;;;;;;31.83;65.31;94390.28;4988052;28;20038;-82
2023/07/20 08:30:21;;;;;;;3.60;1.60;;;;;;;32.47;59.60;94406.38;4971824;28;20093;-86
2023/07/20 08:32:47;;;;;;;;;;;;;;;32.59;60.17;94411.13;4972137;28;20113;-84
2023/07/20 08:35:12;;;;;;;5.80;2.10;;;;;;;32.17;60.56;94418.94;4954513;28;20034;-85
2023/07/20 08:37:38;;;;;;;9.38;1.98;;;;;;;32.35;62.58;94408.97;4971914;28;20030;-83
2023/07/20 08:40:04;;;;;;;4.22;1.83;;;;;;;32.38;62.49;94394.91;4954053;28;20400;-84
2023/07/20 08:42:30;;;;;;;7.60;2.10;;;;;;;32.57;63.51;94407.97;4955828;28;20631;-85
2023/07/20 08:44:56;;;;;;;5.35;2.65;;;;;;;32.56;64.40;94425.16;4970303;28;20065;-84
2023/07/20 08:47:22;;;;;;;7.07;1.70;;;;;;;32.43;64.57;94404.69;4971367;28;20026;-82
2023/07/20 08:49:50;;;;;;;7.25;2.15;;;;;;;32.47;63.03;94395.66;4970963;28;20062;-82
2023/07/20 08:52:16;;;;;;;3.67;1.90;;;;;;;32.59;67.28;94406.53;4954655;28;20018;-81
2023/07/20 08:54:41;;;;;;;6.50;2.17;;;;;;;32.75;65.77;94410.22;4987916;28;20026;-83
2023/07/20 08:57:07;;;;;;;6.32;1.98;;;;;;;32.56;60.71;94404.44;4947644;29;20047;-86
2023/07/20 08:59:34;;;;;;;4.03;2.00;;;;;;;32.45;63.24;94408.63;4949381;29;20035;-85
2023/07/20 09:02:00;;;;;;;7.65;2.50;;;;;;;32.29;64.09;94394.94;4947776;29;20031;-81
2023/07/20 09:04:25;;;;;;;5.10;2.17;;;;;;;32.45;64.63;94400.56;4932754;29;20082;-79
2023/07/20 09:06:51;;;;;;;8.07;2.80;;;;;;;32.67;67.65;94402.22;4931765;29;20031;-81
2023/07/20 09:09:17;;;;;;;5.50;2.35;;;;;;;32.72;68.17;94400.16;4949680;29;20114;-81
2023/07/20 09:11:42;;;;;;;4.47;2.30;;;;;;;32.20;66.62;94409.47;4950116;28;20401;-81
2023/07/20 09:14:09;;;;;;;5.82;2.83;;;;;;;32.39;70.05;94391.13;4947760;29;20038;-82
2023/07/20 09:16:53;;;;;;;6.90;2.30;;;;;;;32.46;67.65;94407.50;4950615;28;20026;-82
2023/07/20 09:19:18;;;;;;;6.07;2.38;;;;;;;32.38;72.19;94397.59;4931135;29;20532;-84
2023/07/20 09:21:53;;;;;;;9.73;2.55;;;;;;;32.12;72.43;94378.09;4949014;29;20058;-84
2023/07/20 09:24:19;;;;;;;9.63;2.50;;;;;;;31.96;72.57;94385.84;4949165;28;20031;-86
2023/07/20 09:26:50;;;;;;;6.72;2.53;;;;;;;32.46;75.46;94388.72;4934523;29;20077;-81
2023/07/20 09:29:19;;;;;;;5.55;2.25;;;;;;;32.46;72.54;94382.56;4953964;28;20066;-88
2023/07/20 09:32:16;;;;;;;14.13;2.33;;;;;;;32.21;72.76;94368.91;4952854;28;20023;-82
2023/07/20 09:34:41;;;;;;;7.15;2.72;;;;;;;31.42;70.64;94373.91;4944739;29;20480;-82
2023/07/20 09:37:07;;;;;;;5.90;2.75;;;;;;;31.57;71.51;94380.69;4951498;29;20058;-79
2023/07/20 09:39:32;;;;;;;5.32;1.92;;;;;;;31.54;70.85;94382.09;4953668;28;20053;-82
2023/07/20 09:42:02;;;;;;;10.32;2.92;;;;;;;31.66;69.19;94368.84;4952410;29;20090;-82
2023/07/20 09:44:28;;;;;;;5.90;1.95;;;;;;;32.00;70.70;94365.34;4952436;29;20031;-80
2023/07/20 09:46:53;;;;;;;4.28;1.60;;;;;;;31.86;66.38;94362.06;4952677;29;20034;-81
2023/07/20 09:49:19;;;;;;;5.57;2.20;;;;;;;31.75;68.30;94366.19;4950870;29;20046;-82
2023/07/20 09:51:45;;;;;;;5.53;2.15;;;;;;;32.21;72.33;94368.13;4952437;29;20122;-81
2023/07/20 09:54:12;;;;;;;3.53;2.03;;;;;;;32.36;71.11;94368.41;4952282;28;20143;-84
2023/07/20 09:56:38;;;;;;;8.23;2.58;;;;;;;32.01;68.06;94366.91;4983889;28;20077;-87
2023/07/20 09:59:04;;;;;;;6.30;1.70;;;;;;;31.91;64.85;94367.25;4990470;28;20038;-86
2023/07/20 10:01:30;;;;;;;7.68;2.38;;;;;;;32.04;68.60;94369.00;4991360;28;20034;-82
2023/07/20 10:03:58;;;;;;;5.93;2.17;;;;;;;31.93;65.52;94370.41;4974854;28;20491;-89
2023/07/20 10:06:24;;;;;;;6.25;2.13;;;;;;;32.07;69.63;94349.59;4956920;28;20053;-89
2023/07/20 10:08:56;;;;;;;4.68;1.73;;;;;;;32.11;65.30;94347.06;4990931;28;20042;-82
2023/07/20 10:11:22;;;;;;;4.03;1.70;;;;;;;32.14;63.76;94360.59;4971952;28;20413;-83
2023/07/20 10:13:51;;;;;;;4.20;1.80;;;;;;;32.35;65.19;94363.34;4990946;28;20426;-89
2023/07/20 10:16:28;;;;;;;3.83;1.63;;;;;;;32.22;64.99;94353.63;4989678;28;20027;-88
2023/07/20 10:19:29;;;;;;;9.57;1.75;;;;;;;32.30;64.88;94348.22;4991228;28;20610;-80
2023/07/20 10:22:04;;;;;;;4.78;1.40;;;;;;;32.65;62.98;94335.47;4970143;28;20495;-82
2023/07/20 10:24:29;;;;;;;5.70;1.75;;;;;;;32.32;62.68;94343.34;4988795;28;20488;-81
2023/07/20 10:26:55;;;;;;;9.48;1.70;;;;;;;31.89;57.28;94337.28;4990460;28;20026;-83
2023/07/20 10:29:22;;;;;;;9.88;1.55;;;;;;;31.83;57.68;94330.53;4973482;28;20038;-81
2023/07/20 10:31:48;;;;;;;9.25;1.85;;;;;;;31.92;56.82;94335.88;4989575;28;20033;-83
2023/07/20 10:34:14;;;;;;;3.08;1.42;;;;;;;31.83;60.41;94342.03;4990351;28;20113;-82
2023/07/20 10:36:48;;;;;;;6.00;2.20;;;;;;;31.98;59.46;94340.72;4990002;28;20105;-81
2023/07/20 10:39:24;;;;;;;4.93;1.67;;;;;;;31.49;61.87;94346.63;4973816;28;20019;-83
2023/07/20 10:41:50;;;;;;;8.00;1.73;;;;;;;31.73;62.61;94349.63;4988632;28;20062;-81
2023/07/20 10:44:20;;;;;;;4.68;1.75;;;;;;;31.80;62.84;94347.25;4973814;28;20066;-78
2023/07/20 10:46:46;;;;;;;3.60;1.42;;;;;;;31.75;63.74;94350.91;4989332;28;20546;-82
2023/07/20 10:49:14;;;;;;;5.97;1.80;;;;;;;32.03;61.45;94363.91;4972987;28;20110;-86
2023/07/20 10:51:44;;;;;;;3.08;1.98;;;;;;;31.92;60.35;94357.31;4957502;28;20062;-81
2023/07/20 10:54:29;;;;;;;8.55;1.80;;;;;;;32.25;57.64;94363.72;4989880;28;20037;-84
2023/07/20 10:57:21;;;;;;;2.72;1.30;;;;;;;32.45;58.89;94365.69;4990621;28;20081;-81
2023/07/20 10:59:47;;;;;;;4.57;1.23;;;;;;;32.75;58.23;94345.81;4990477;28;20106;-82
2023/07/20 11:02:12;;;;;;;11.15;1.90;;;;;;;31.66;53.60;94323.31;4972793;28;20117;-91
2023/07/20 11:04:39;;;;;;;9.00;2.25;;;;;;;31.51;55.86;94318.44;4973396;28;20037;-86
2023/07/20 11:07:06;;;;;;;8.88;2.33;;;;;;;31.34;57.42;94348.69;4989833;28;20050;-83
2023/07/20 11:09:38;;;;;;;13.20;2.13;;;;;;;31.14;61.16;94333.25;4973568;28;20040;-83
2023/07/20 11:12:15;;;;;;;3.65;1.60;;;;;;;31.18;67.01;94325.38;4988144;28;20062;-79
2023/07/20 11:14:41;;;;;;;10.77;1.95;;;;;;;31.27;65.74;94312.78;4990494;28;20041;-81
2023/07/20 11:17:12;;;;;;;5.57;1.30;;;;;;;31.28;69.53;94245.50;4973047;28;20022;-80
2023/07/20 11:19:39;;;;;;;10.43;2.03;;;;;;;31.84;58.66;94292.69;4972089;28;20435;-83
2023/07/20 11:22:07;;;;;;;1.92;1.38;;;;;;;32.05;62.27;94316.13;4973590;28;20018;-83
2023/07/20 11:24:33;;;;;;;6.15;1.10;;;;;;;31.89;61.94;94307.81;4987868;28;20033;-81
2023/07/20 11:26:59;;;;;;;5.60;1.80;;;;;;;31.45;61.66;94282.19;4972932;28;20034;-84
2023/07/20 11:29:26;;;;;;;6.95;1.92;;;;;;;31.48;60.46;94283.44;4987860;28;20433;-81